createdAt,value
2018-05-08T00:04:29.509Z,99556.77
2018-05-08T00:10:33.867Z,99560.06
2018-05-08T00:16:38.240Z,99557.78
2018-05-08T00:22:42.635Z,99557.11
2018-05-08T00:28:46.999Z,99555.69
2018-05-08T00:34:51.436Z,99549.18
2018-05-08T00:40:55.822Z,99546.59
2018-05-08T00:47:00.178Z,99544.53
2018-05-08T00:53:05.304Z,99536.16
2018-05-08T00:59:09.699Z,99536.28
2018-05-08T01:05:14.073Z,99542.29
2018-05-08T01:11:18.434Z,99542.50
2018-05-08T01:17:22.925Z,99534.02
2018-05-08T01:23:28.084Z,99544.49
2018-05-08T01:29:32.450Z,99549.45
2018-05-08T01:35:36.813Z,99543.84
2018-05-08T01:41:41.953Z,99541.15
2018-05-08T01:47:46.323Z,99537.81
2018-05-08T01:53:51.106Z,99524.20
2018-05-08T01:59:55.482Z,99524.51
2018-05-08T02:05:59.824Z,99519.93
2018-05-08T02:12:04.199Z,99520.67
2018-05-08T02:18:08.564Z,99519.19
2018-05-08T02:24:13.701Z,99508.97
2018-05-08T02:30:18.166Z,99506.67
2018-05-08T02:36:22.570Z,99491.36
2018-05-08T02:42:26.940Z,99488.78
2018-05-08T02:48:31.331Z,99482.09
2018-05-08T02:54:35.691Z,99480.97
2018-05-08T03:00:40.066Z,99482.20
2018-05-08T03:06:44.426Z,99485.32
2018-05-08T03:12:49.440Z,99489.94
2018-05-08T03:18:53.899Z,99486.33
2018-05-08T03:24:58.350Z,99492.06
2018-05-08T03:31:02.827Z,99489.31
2018-05-08T03:37:07.235Z,99487.75
2018-05-08T03:43:12.416Z,99496.86
2018-05-08T03:49:16.760Z,99480.95
2018-05-08T03:55:21.471Z,99472.92
2018-05-08T04:01:43.443Z,99471.12
2018-05-08T04:08:05.608Z,99469.63
2018-05-08T04:14:10.731Z,99470.55
2018-05-08T04:20:15.095Z,99462.36
2018-05-08T04:26:20.541Z,99462.70
2018-05-08T04:32:24.934Z,99459.22
2018-05-08T04:38:29.317Z,99462.13
2018-05-08T04:44:34.457Z,99456.33
2018-05-08T04:50:38.831Z,99439.52
2018-05-08T04:56:43.182Z,99441.66
2018-05-08T05:02:47.632Z,99441.53
2018-05-08T05:08:52.298Z,99434.77
2018-05-08T05:14:57.486Z,99428.73
2018-05-08T05:21:01.838Z,99430.36
2018-05-08T05:27:06.228Z,99433.58
2018-05-08T05:33:10.711Z,99439.90
2018-05-08T05:39:15.144Z,99431.06
2018-05-08T05:45:19.849Z,99425.80
2018-05-08T05:51:24.271Z,99425.41
2018-05-08T05:57:28.663Z,99428.21
2018-05-08T06:03:33.805Z,99415.30
2018-05-08T06:09:38.238Z,99409.86
2018-05-08T06:15:42.599Z,99404.31
2018-05-08T06:21:47.735Z,99394.67
2018-05-08T06:27:52.404Z,99390.22
2018-05-08T06:33:56.782Z,99385.42
2018-05-08T06:40:02.039Z,99387.43
2018-05-08T06:46:06.446Z,99382.27
2018-05-08T06:52:10.860Z,99384.78
2018-05-08T06:58:15.247Z,99381.05
2018-05-08T07:04:20.000Z,99381.02
2018-05-08T07:10:24.829Z,99380.57
2018-05-08T07:16:29.208Z,99381.90
2018-05-08T07:22:34.328Z,99379.90
2018-05-08T07:28:38.679Z,99383.14
2018-05-08T07:34:43.813Z,99371.14
2018-05-08T07:40:48.185Z,99377.03
2018-05-08T07:46:52.728Z,99373.77
2018-05-08T07:52:57.123Z,99375.50
2018-05-08T07:59:01.481Z,99371.67
2018-05-08T08:05:06.606Z,99363.38
2018-05-08T08:11:11.021Z,99358.81
2018-05-08T08:17:15.375Z,99358.52
2018-05-08T08:23:19.910Z,99353.41
2018-05-08T08:29:25.127Z,99346.77
2018-05-08T08:35:29.538Z,99342.04
2018-05-08T08:41:33.902Z,99337.08
2018-05-08T08:47:38.319Z,99330.21
2018-05-08T08:53:42.708Z,99333.47
2018-05-08T08:59:47.066Z,99323.20
2018-05-08T09:05:52.192Z,99311.84
2018-05-08T09:11:57.409Z,99308.28
2018-05-08T09:18:01.787Z,99304.28
2018-05-08T09:24:06.146Z,99296.77
2018-05-08T09:30:10.527Z,99296.19
2018-05-08T09:36:15.653Z,99286.75
2018-05-08T09:42:20.041Z,99275.84
2018-05-08T09:48:25.180Z,99279.63
2018-05-08T09:54:29.541Z,99268.84
2018-05-08T10:00:34.354Z,99263.06
2018-05-08T10:06:38.815Z,99256.05
2018-05-08T10:12:43.112Z,99255.76
2018-05-08T10:18:47.473Z,99246.96
2018-05-08T10:24:51.884Z,99227.92
2018-05-08T10:30:57.023Z,99225.14
2018-05-08T10:37:01.420Z,99216.16
2018-05-08T10:43:05.798Z,99200.55
2018-05-08T10:49:10.141Z,99207.27
2018-05-08T10:55:14.502Z,99190.92
2018-05-08T11:01:19.720Z,99188.42
2018-05-08T11:07:24.316Z,99175.30
2018-05-08T11:13:28.675Z,99167.10
2018-05-08T11:19:33.129Z,99173.14
2018-05-08T11:25:37.507Z,99158.79
2018-05-08T11:31:41.867Z,99141.20
2018-05-08T11:37:46.255Z,99133.02
2018-05-08T11:43:50.635Z,99132.34
2018-05-08T11:49:55.035Z,99122.52
2018-05-08T11:55:59.433Z,99111.63
2018-05-08T12:02:03.815Z,99112.30
2018-05-08T12:08:08.159Z,99097.52
2018-05-08T12:14:12.600Z,99090.23
2018-05-08T12:20:17.112Z,99080.19
2018-05-08T12:26:21.535Z,99080.23
2018-05-08T12:32:26.118Z,99071.17
2018-05-08T12:38:31.246Z,99071.28
2018-05-08T12:44:35.631Z,99051.95
2018-05-08T12:50:39.989Z,99045.45
2018-05-08T12:56:44.354Z,99040.17
2018-05-08T13:02:48.872Z,99024.92
2018-05-08T13:09:18.158Z,99024.13
2018-05-08T13:15:25.469Z,99029.17
2018-05-08T13:21:30.187Z,99014.98
2018-05-08T13:27:34.542Z,99008.97
2018-05-08T13:33:38.924Z,99011.90
2018-05-08T13:39:43.388Z,99003.48
2018-05-08T13:45:48.600Z,98997.59
2018-05-08T13:51:53.423Z,98993.91
2018-05-08T13:57:57.826Z,98989.19
2018-05-08T14:04:02.255Z,98978.03
2018-05-08T14:10:07.394Z,98979.60
2018-05-08T14:16:11.851Z,98965.53
2018-05-08T14:22:16.223Z,98966.16
2018-05-08T14:28:21.386Z,98955.16
2018-05-08T14:34:26.020Z,98946.81
2018-05-08T14:40:30.574Z,98936.73
2018-05-08T14:46:35.057Z,98930.61
2018-05-08T14:52:39.421Z,98929.30
2018-05-08T14:58:44.541Z,98921.47
2018-05-08T15:04:48.908Z,98924.56
2018-05-08T15:10:53.828Z,98915.81
2018-05-08T15:16:58.355Z,98921.12
2018-05-08T15:23:03.568Z,98908.39
2018-05-08T15:29:07.975Z,98916.74
2018-05-08T15:35:12.342Z,98905.86
2018-05-08T15:41:16.801Z,98903.34
2018-05-08T15:47:21.254Z,98903.30
2018-05-08T15:53:25.623Z,98900.34
2018-05-08T15:59:30.747Z,98898.06
2018-05-08T16:05:35.113Z,98887.37
2018-05-08T16:11:39.497Z,98881.78
2018-05-08T16:17:45.396Z,98877.31
2018-05-08T16:23:49.809Z,98866.19
2018-05-08T16:29:54.218Z,98872.47
2018-05-08T16:35:59.461Z,98864.81
2018-05-08T16:42:03.822Z,98862.11
2018-05-08T16:48:08.296Z,98866.64
2018-05-08T16:54:12.726Z,98854.05
2018-05-08T17:00:17.859Z,98860.77
2018-05-08T17:06:23.543Z,98856.53
2018-05-08T17:12:28.666Z,98850.66
2018-05-08T17:18:33.175Z,98850.66
2018-05-08T17:24:37.601Z,98847.14
2018-05-08T17:30:42.394Z,98854.28
2018-05-08T17:36:46.779Z,98849.77
2018-05-08T17:42:51.152Z,98845.57
2018-05-08T17:48:55.928Z,98846.87
2018-05-08T17:55:00.346Z,98840.67
2018-05-08T18:01:04.789Z,98843.05
2018-05-08T18:07:09.256Z,98850.84
2018-05-08T18:13:13.893Z,98851.81
2018-05-08T18:19:19.767Z,98841.70
2018-05-08T18:25:24.244Z,98848.94
2018-05-08T18:31:30.239Z,98841.87
2018-05-08T18:37:34.605Z,98844.86
2018-05-08T18:43:39.733Z,98844.34
2018-05-08T18:49:44.268Z,98853.85
2018-05-08T18:55:48.588Z,98848.61
2018-05-08T19:01:53.071Z,98855.78
2018-05-08T19:07:57.593Z,98858.37
2018-05-08T19:14:02.711Z,98862.88
2018-05-08T19:20:07.856Z,98869.95
2018-05-08T19:26:12.575Z,98876.69
2018-05-08T19:32:17.024Z,98876.55
2018-05-08T19:38:22.322Z,98878.63
2018-05-08T19:44:28.190Z,98881.75
2018-05-08T19:50:32.614Z,98878.47
2018-05-08T19:56:37.742Z,98872.78
2018-05-08T20:02:42.119Z,98871.47
2018-05-08T20:08:46.675Z,98876.80
2018-05-08T20:14:51.358Z,98875.99
2018-05-08T20:20:55.952Z,98876.66
2018-05-08T20:27:00.335Z,98878.15
2018-05-08T20:33:04.804Z,98873.13
2018-05-08T20:39:09.170Z,98883.18
2018-05-08T20:45:13.637Z,98877.27
2018-05-08T20:51:18.804Z,98876.83
2018-05-08T20:57:23.474Z,98878.58
2018-05-08T21:03:28.128Z,98886.94
2018-05-08T21:09:32.481Z,98884.06
2018-05-08T21:15:36.859Z,98881.61
2018-05-08T21:21:41.274Z,98885.09
2018-05-08T21:34:27.782Z,98890.63
2018-05-08T21:40:32.144Z,98886.25
2018-05-08T21:46:36.530Z,98898.50
2018-05-08T21:52:40.880Z,98893.89
2018-05-08T21:58:46.033Z,98899.89
2018-05-08T22:11:29.439Z,98894.38
2018-05-08T22:17:34.872Z,98892.44
2018-05-08T22:23:39.228Z,98885.19
2018-05-08T22:29:43.582Z,98890.19
2018-05-08T22:35:48.752Z,98889.15
2018-05-08T22:41:53.313Z,98891.77
2018-05-08T22:47:57.654Z,98889.20
2018-05-08T22:54:01.985Z,98887.14
2018-05-08T23:00:06.418Z,98886.80
2018-05-08T23:06:11.348Z,98881.98
2018-05-08T23:12:15.764Z,98872.95
2018-05-08T23:18:20.265Z,98875.20
2018-05-08T23:24:25.744Z,98880.25
2018-05-08T23:30:30.109Z,98871.48
2018-05-08T23:36:35.243Z,98875.42
2018-05-08T23:42:39.579Z,98875.03
2018-05-08T23:48:43.956Z,98875.33
2018-05-08T23:54:48.396Z,98865.32
